Time;durP1;ratioP1;P1;durP2;ratioP2;P2;SDS_P1;SDS_P2;PMS_P1;PMS_P2;Temp;Humidity;BMP_temperature;BMP_pressure;BME280_temperature;BME280_humidity;BME280_pressure;Samples;Min_cycle;Max_cycle;Signal;HPM_P1;HPM_P2
2023/03/03 00:01:05;;;;;;;28.67;13.75;;;1.30;99.90;;;;;;5014078;28;20034;-77
2023/03/03 00:03:31;;;;;;;31.65;15.50;;;1.30;99.90;;;;;;5014120;28;20022;-78
2023/03/03 00:05:57;;;;;;;29.77;13.80;;;1.30;99.90;;;;;;5015408;28;20438;-78
2023/03/03 00:08:23;;;;;;;34.67;15.40;;;1.30;99.90;;;;;;5017322;28;20517;-78
2023/03/03 00:10:49;;;;;;;28.42;13.63;;;1.30;99.90;;;;;;5014020;28;20546;-77
2023/03/03 00:13:17;;;;;;;29.52;13.38;;;1.30;99.90;;;;;;5022195;28;20057;-77
2023/03/03 00:15:43;;;;;;;27.42;12.50;;;1.30;99.90;;;;;;5030172;28;20017;-78
2023/03/03 00:18:25;;;;;;;28.25;12.18;;;1.30;99.90;;;;;;5033321;28;20372;-78
2023/03/03 00:20:56;;;;;;;24.17;11.43;;;1.30;99.90;;;;;;5027972;28;20529;-77
2023/03/03 00:23:42;;;;;;;23.87;11.03;;;1.30;99.90;;;;;;5011970;28;20060;-78
2023/03/03 00:26:36;;;;;;;20.60;9.93;;;1.30;99.90;;;;;;5012974;28;20287;-77
2023/03/03 00:29:34;;;;;;;18.70;9.32;;;1.30;99.90;;;;;;5011422;28;20105;-76
2023/03/03 00:32:22;;;;;;;29.17;11.63;;;1.30;99.90;;;;;;5023725;28;20072;-78
2023/03/03 00:34:49;;;;;;;31.48;14.20;;;1.30;99.90;;;;;;5013492;28;20034;-78
2023/03/03 00:37:33;;;;;;;36.83;17.65;;;1.30;99.90;;;;;;5013168;28;20088;-78
2023/03/03 00:40:26;;;;;;;40.10;17.02;;;1.30;99.90;;;;;;5013345;28;20025;-77
2023/03/03 00:42:54;;;;;;;33.03;13.75;;;1.30;99.90;;;;;;5021455;28;20032;-78
2023/03/03 00:45:42;;;;;;;28.83;12.68;;;1.20;99.90;;;;;;5013622;28;20113;-78
2023/03/03 00:48:22;;;;;;;37.13;16.23;;;1.20;99.90;;;;;;5013414;28;20021;-77
2023/03/03 00:50:48;;;;;;;37.00;15.55;;;1.20;99.90;;;;;;5013406;28;20041;-78
2023/03/03 00:53:16;;;;;;;32.75;15.55;;;1.20;99.90;;;;;;5017626;28;20034;-78
2023/03/03 00:55:42;;;;;;;28.30;13.07;;;1.20;99.90;;;;;;5019495;28;20080;-78
2023/03/03 00:58:09;;;;;;;31.42;13.50;;;1.20;99.90;;;;;;5019473;28;20507;-78
2023/03/03 01:00:36;;;;;;;31.58;12.30;;;1.20;99.90;;;;;;5019455;28;20483;-78
2023/03/03 01:03:04;;;;;;;28.25;12.60;;;1.30;99.90;;;;;;5018321;28;20030;-77
2023/03/03 01:05:31;;;;;;;28.20;12.30;;;1.20;99.90;;;;;;5017682;28;20030;-77
2023/03/03 01:07:56;;;;;;;26.10;12.15;;;1.20;99.90;;;;;;5017827;28;20482;-77
2023/03/03 01:10:23;;;;;;;28.48;12.15;;;1.20;99.90;;;;;;5018566;28;20026;-77
2023/03/03 01:12:48;;;;;;;25.90;11.98;;;1.20;99.90;;;;;;5029905;28;20034;-77
2023/03/03 01:15:15;;;;;;;20.25;10.30;;;1.20;99.90;;;;;;5028314;28;20375;-78
2023/03/03 01:17:41;;;;;;;21.92;9.88;;;1.20;99.90;;;;;;5018378;28;20092;-78
2023/03/03 01:20:09;;;;;;;21.00;10.65;;;1.20;99.90;;;;;;5022870;28;20053;-78
2023/03/03 01:22:34;;;;;;;25.83;11.68;;;1.20;99.90;;;;;;5023017;28;20021;-78
2023/03/03 01:25:02;;;;;;;29.85;14.45;;;1.20;99.90;;;;;;5017968;28;20387;-77
2023/03/03 01:27:29;;;;;;;30.08;14.15;;;1.20;99.90;;;;;;5018411;28;20040;-77
2023/03/03 01:29:55;;;;;;;35.10;14.98;;;1.20;99.90;;;;;;5020654;28;20052;-77
2023/03/03 01:32:22;;;;;;;29.88;14.40;;;1.20;99.90;;;;;;5018508;28;20018;-77
2023/03/03 01:34:48;;;;;;;35.00;14.02;;;1.20;99.90;;;;;;5015900;28;20068;-78
2023/03/03 01:37:13;;;;;;;26.67;12.15;;;1.20;99.90;;;;;;5017220;28;20030;-78
2023/03/03 01:39:39;;;;;;;23.63;11.68;;;1.20;99.90;;;;;;5017594;28;20034;-78
2023/03/03 01:42:05;;;;;;;22.67;10.70;;;1.20;99.90;;;;;;5021583;28;20022;-78
2023/03/03 01:44:30;;;;;;;21.73;9.30;;;1.20;99.90;;;;;;5028379;28;20052;-77
2023/03/03 01:47:16;;;;;;;21.95;9.93;;;1.20;99.90;;;;;;5037015;28;20037;-77
2023/03/03 01:49:50;;;;;;;23.42;9.88;;;1.20;99.90;;;;;;5037402;28;20025;-78
2023/03/03 01:52:31;;;;;;;22.65;10.18;;;1.20;99.90;;;;;;5036720;28;20088;-77
2023/03/03 01:55:01;;;;;;;18.88;9.82;;;1.20;99.90;;;;;;5024171;28;20120;-78
2023/03/03 01:57:39;;;;;;;19.65;9.05;;;1.20;99.90;;;;;;5015970;28;20056;-76
2023/03/03 02:00:06;;;;;;;24.50;10.93;;;1.30;99.90;;;;;;5015992;28;20022;-78
2023/03/03 02:02:32;;;;;;;21.63;10.82;;;1.30;99.90;;;;;;5016115;28;20411;-78
2023/03/03 02:04:58;;;;;;;25.42;12.10;;;1.30;99.90;;;;;;5014280;28;20049;-77
2023/03/03 02:07:28;;;;;;;42.20;17.63;;;1.30;99.90;;;;;;5014923;28;20022;-77
2023/03/03 02:10:28;;;;;;;38.15;17.35;;;1.30;99.90;;;;;;5015928;28;20030;-78
2023/03/03 02:12:56;;;;;;;32.92;15.13;;;1.30;99.90;;;;;;4978253;28;20038;-77
2023/03/03 02:15:31;;;;;;;29.45;14.32;;;1.30;99.90;;;;;;5024047;28;20033;-77
2023/03/03 02:18:01;;;;;;;29.13;14.63;;;1.30;99.90;;;;;;5014111;28;20109;-78
2023/03/03 02:20:49;;;;;;;26.98;12.57;;;1.30;99.90;;;;;;5015165;28;20042;-78
2023/03/03 02:23:20;;;;;;;26.13;12.38;;;1.30;99.90;;;;;;5015287;28;20025;-78
2023/03/03 02:26:04;;;;;;;23.25;11.35;;;1.30;99.90;;;;;;5015141;28;20490;-77
2023/03/03 02:28:33;;;;;;;25.30;11.30;;;1.30;99.90;;;;;;5015425;28;20135;-78
2023/03/03 02:31:00;;;;;;;29.67;13.50;;;1.30;99.90;;;;;;5015109;28;20474;-78
2023/03/03 02:33:26;;;;;;;35.47;15.52;;;1.30;99.90;;;;;;5016079;28;20104;-79
2023/03/03 02:35:52;;;;;;;32.45;14.57;;;1.30;99.90;;;;;;5015067;28;20487;-78
2023/03/03 02:38:57;;;;;;;29.55;12.98;;;1.30;99.90;;;;;;5013911;28;20445;-77
2023/03/03 02:41:39;;;;;;;25.73;11.85;;;1.30;99.90;;;;;;4981884;28;20046;-78
2023/03/03 02:44:20;;;;;;;24.90;11.05;;;1.30;99.90;;;;;;5016243;28;20486;-77
2023/03/03 02:46:48;;;;;;;24.33;11.38;;;1.40;99.90;;;;;;5015767;28;20115;-77
2023/03/03 02:49:22;;;;;;;24.13;11.30;;;1.50;99.90;;;;;;5015725;28;20022;-78
2023/03/03 02:51:48;;;;;;;24.48;11.23;;;1.60;99.90;;;;;;5015387;28;20026;-78
2023/03/03 02:54:16;;;;;;;24.65;11.55;;;1.60;99.90;;;;;;5014963;28;20420;-78
2023/03/03 02:56:42;;;;;;;25.23;11.30;;;1.70;99.90;;;;;;5015447;28;20037;-78
2023/03/03 02:59:07;;;;;;;22.75;10.85;;;1.80;99.90;;;;;;5016185;28;20033;-78
2023/03/03 03:01:39;;;;;;;30.55;14.10;;;1.80;99.90;;;;;;5015688;28;20098;-79
2023/03/03 03:04:26;;;;;;;32.38;14.43;;;1.80;99.90;;;;;;5031790;28;20052;-78
2023/03/03 03:06:56;;;;;;;32.25;13.93;;;1.90;99.90;;;;;;5018889;28;20037;-78
2023/03/03 03:09:23;;;;;;;28.85;12.88;;;1.80;99.90;;;;;;5016188;28;20424;-78
2023/03/03 03:12:20;;;;;;;26.50;12.38;;;1.90;99.90;;;;;;5036896;23;20042;-79
2023/03/03 03:14:48;;;;;;;24.45;11.13;;;2.00;99.90;;;;;;5019365;28;20041;-77
2023/03/03 03:17:18;;;;;;;21.42;11.00;;;2.10;99.90;;;;;;5046579;28;20037;-76
2023/03/03 03:19:47;;;;;;;20.30;10.27;;;2.10;99.90;;;;;;5032795;28;20068;-76
2023/03/03 03:22:13;;;;;;;20.23;10.90;;;2.20;99.90;;;;;;5021041;28;20455;-77
2023/03/03 03:24:41;;;;;;;29.27;13.95;;;2.20;99.90;;;;;;5021319;28;20026;-78
2023/03/03 03:27:07;;;;;;;25.75;12.90;;;2.20;99.90;;;;;;5016359;28;20037;-78
2023/03/03 03:29:33;;;;;;;23.50;11.80;;;2.30;99.90;;;;;;4998232;28;20542;-78
2023/03/03 03:32:01;;;;;;;23.98;11.25;;;2.30;99.90;;;;;;4996482;28;20045;-77
2023/03/03 03:34:30;;;;;;;24.08;11.70;;;2.40;99.90;;;;;;4995512;28;20033;-77
2023/03/03 03:36:55;;;;;;;28.08;13.73;;;2.40;99.90;;;;;;4994629;28;20033;-77
2023/03/03 03:39:21;;;;;;;23.60;11.75;;;2.40;99.90;;;;;;4995362;28;20030;-78
2023/03/03 03:41:46;;;;;;;23.92;11.73;;;2.40;99.90;;;;;;4994647;28;20027;-77
2023/03/03 03:44:12;;;;;;;22.60;11.25;;;2.50;99.90;;;;;;5004245;28;20018;-77
2023/03/03 03:46:38;;;;;;;22.17;10.93;;;2.50;99.90;;;;;;5014153;28;20026;-78
2023/03/03 03:49:03;;;;;;;22.83;12.23;;;2.60;99.90;;;;;;5014643;28;20076;-78
2023/03/03 03:51:30;;;;;;;20.80;10.30;;;2.60;99.90;;;;;;5015559;28;20048;-79
2023/03/03 03:53:55;;;;;;;21.05;10.65;;;2.60;99.90;;;;;;5019263;28;20090;-79
2023/03/03 03:56:21;;;;;;;21.85;10.65;;;2.60;99.90;;;;;;5015098;28;20030;-77
2023/03/03 03:58:46;;;;;;;22.63;10.73;;;2.60;99.90;;;;;;5009934;28;20041;-77
2023/03/03 04:01:13;;;;;;;26.83;12.07;;;2.70;99.90;;;;;;4996729;28;20026;-76
2023/03/03 04:03:38;;;;;;;25.58;12.52;;;2.70;99.90;;;;;;4993410;28;20064;-77
2023/03/03 04:06:04;;;;;;;21.63;10.73;;;2.70;99.90;;;;;;4994789;28;20034;-77
2023/03/03 04:08:30;;;;;;;23.20;10.25;;;2.70;99.90;;;;;;4996251;28;20111;-77
2023/03/03 04:10:55;;;;;;;20.90;9.43;;;2.70;99.90;;;;;;5019837;28;20018;-78
2023/03/03 04:13:22;;;;;;;17.30;9.38;;;2.80;99.90;;;;;;5025228;28;20447;-76
2023/03/03 04:15:47;;;;;;;21.75;10.35;;;2.80;99.90;;;;;;5016366;28;20104;-76
2023/03/03 04:18:13;;;;;;;21.85;10.50;;;2.80;99.90;;;;;;5028583;28;20017;-75
2023/03/03 04:20:39;;;;;;;21.85;10.32;;;2.80;99.90;;;;;;5031820;28;20026;-75
2023/03/03 04:23:05;;;;;;;22.23;10.45;;;2.80;99.90;;;;;;5008933;28;20079;-75
2023/03/03 04:25:30;;;;;;;43.88;18.85;;;2.80;99.90;;;;;;4998841;28;20467;-76
2023/03/03 04:27:56;;;;;;;41.78;19.17;;;2.80;99.90;;;;;;4994141;28;20078;-75
2023/03/03 04:30:22;;;;;;;36.17;18.50;;;2.80;99.90;;;;;;4999719;28;20034;-76
2023/03/03 04:32:48;;;;;;;32.35;16.65;;;2.80;99.90;;;;;;4993550;28;20030;-74
2023/03/03 04:35:14;;;;;;;36.45;16.90;;;2.80;99.90;;;;;;4993464;28;20018;-75
2023/03/03 04:37:39;;;;;;;34.60;16.35;;;2.80;99.90;;;;;;4993465;28;20505;-75
2023/03/03 04:40:06;;;;;;;30.27;14.40;;;2.80;99.90;;;;;;4991672;28;20058;-75
2023/03/03 04:42:32;;;;;;;32.67;15.20;;;2.80;99.90;;;;;;5000543;28;20037;-75
2023/03/03 04:44:58;;;;;;;32.33;14.98;;;2.80;99.90;;;;;;5010704;28;20022;-75
2023/03/03 04:47:25;;;;;;;32.22;14.70;;;2.80;99.90;;;;;;5008589;28;20467;-75
2023/03/03 04:49:51;;;;;;;29.63;14.52;;;2.80;99.90;;;;;;4992723;28;20022;-75
2023/03/03 04:52:16;;;;;;;48.97;22.50;;;2.80;99.90;;;;;;4992626;28;20439;-75
2023/03/03 04:54:42;;;;;;;39.05;19.80;;;2.80;99.90;;;;;;4992999;28;20026;-75
2023/03/03 04:57:08;;;;;;;33.38;17.02;;;2.70;99.90;;;;;;4993432;28;20157;-74
2023/03/03 04:59:34;;;;;;;40.08;20.73;;;2.70;99.90;;;;;;4992541;28;20046;-75
2023/03/03 05:02:00;;;;;;;42.90;19.27;;;2.70;99.90;;;;;;4992692;28;20053;-75
2023/03/03 05:04:26;;;;;;;35.25;17.58;;;2.80;99.90;;;;;;4992208;28;20058;-75
2023/03/03 05:06:51;;;;;;;46.53;21.58;;;2.70;99.90;;;;;;4992356;28;20018;-76
2023/03/03 05:09:17;;;;;;;50.35;24.35;;;2.80;99.90;;;;;;4992387;28;20084;-76
2023/03/03 05:11:43;;;;;;;52.03;23.45;;;2.80;99.90;;;;;;4992748;28;20097;-75
2023/03/03 05:14:08;;;;;;;57.80;26.13;;;2.80;99.90;;;;;;5004454;28;20026;-75
2023/03/03 05:16:34;;;;;;;54.15;25.15;;;2.70;99.90;;;;;;4999123;28;20165;-75
2023/03/03 05:19:00;;;;;;;50.90;23.30;;;2.70;99.90;;;;;;5000770;28;20075;-74
2023/03/03 05:21:25;;;;;;;42.05;19.23;;;2.70;99.90;;;;;;4992625;28;20073;-75
2023/03/03 05:23:51;;;;;;;51.67;23.90;;;2.70;99.90;;;;;;4992087;28;20110;-75
2023/03/03 05:26:17;;;;;;;44.33;20.95;;;2.80;99.90;;;;;;4991871;28;20034;-75
2023/03/03 05:28:42;;;;;;;41.15;18.45;;;2.70;99.90;;;;;;4992529;28;20097;-75
2023/03/03 05:31:08;;;;;;;40.88;19.83;;;2.70;99.90;;;;;;4993510;28;20458;-75
2023/03/03 05:33:34;;;;;;;32.90;17.40;;;2.80;99.90;;;;;;4992319;28;20115;-75
2023/03/03 05:36:00;;;;;;;29.38;14.70;;;2.80;99.90;;;;;;4993056;28;20471;-75
2023/03/03 05:38:25;;;;;;;29.98;15.48;;;2.80;99.90;;;;;;4995531;28;20105;-75
2023/03/03 05:40:51;;;;;;;35.13;16.30;;;2.90;99.90;;;;;;4995761;28;20487;-75
2023/03/03 05:43:17;;;;;;;40.80;18.70;;;2.90;99.90;;;;;;4997116;28;20098;-75
2023/03/03 05:45:42;;;;;;;40.33;18.98;;;2.90;99.90;;;;;;4996485;28;20026;-75
2023/03/03 05:48:09;;;;;;;35.92;17.90;;;2.90;99.90;;;;;;5001451;28;20034;-77
2023/03/03 05:50:35;;;;;;;30.98;15.55;;;2.80;99.90;;;;;;4993901;28;20018;-76
2023/03/03 05:53:02;;;;;;;26.67;13.13;;;2.90;99.90;;;;;;4994956;28;20105;-77
2023/03/03 05:55:27;;;;;;;27.40;12.70;;;2.90;99.90;;;;;;4993859;28;20030;-77
2023/03/03 05:57:53;;;;;;;23.88;11.98;;;2.90;99.90;;;;;;4993741;28;20479;-75
2023/03/03 06:00:19;;;;;;;27.65;11.68;;;3.00;99.90;;;;;;4992447;28;20031;-76
2023/03/03 06:02:45;;;;;;;24.90;13.05;;;2.90;99.90;;;;;;4997142;28;20355;-77
2023/03/03 06:05:11;;;;;;;23.23;11.05;;;2.90;99.90;;;;;;5001743;28;20037;-77
2023/03/03 06:07:37;;;;;;;18.92;11.05;;;2.90;99.90;;;;;;4995086;28;20026;-78
2023/03/03 06:10:04;;;;;;;30.98;15.10;;;2.90;99.90;;;;;;4994838;28;20030;-77
2023/03/03 06:12:29;;;;;;;31.88;15.48;;;2.90;99.90;;;;;;4992714;28;20034;-77
2023/03/03 06:14:55;;;;;;;33.20;15.38;;;2.90;99.90;;;;;;5002679;28;20057;-75
2023/03/03 06:17:21;;;;;;;31.98;15.07;;;2.90;99.90;;;;;;5002669;28;20113;-76
2023/03/03 06:19:47;;;;;;;29.40;14.45;;;2.90;99.90;;;;;;4997060;28;20030;-77
2023/03/03 06:22:13;;;;;;;27.88;14.13;;;3.00;99.90;;;;;;4992226;28;20041;-76
2023/03/03 06:24:39;;;;;;;25.67;13.68;;;3.00;99.90;;;;;;4993650;28;20699;-75
2023/03/03 06:27:04;;;;;;;28.08;13.70;;;3.10;99.90;;;;;;5001772;28;20069;-75
2023/03/03 06:29:30;;;;;;;37.75;18.65;;;3.10;99.90;;;;;;5009942;28;20027;-76
2023/03/03 06:31:57;;;;;;;36.40;18.55;;;3.10;99.90;;;;;;5013950;28;20057;-75
2023/03/03 06:34:22;;;;;;;32.08;16.10;;;3.10;99.90;;;;;;5011459;28;20038;-76
2023/03/03 06:36:48;;;;;;;28.88;14.07;;;3.10;99.90;;;;;;5011307;28;20018;-74
2023/03/03 06:39:14;;;;;;;31.13;14.65;;;3.10;99.90;;;;;;5010642;28;20130;-77
2023/03/03 06:41:39;;;;;;;32.38;14.38;;;3.10;99.90;;;;;;5010650;28;20062;-75
2023/03/03 06:44:05;;;;;;;30.55;15.43;;;3.20;99.90;;;;;;5012722;28;20015;-78
2023/03/03 06:46:31;;;;;;;38.42;18.33;;;3.20;99.90;;;;;;5017707;28;20446;-76
2023/03/03 06:48:56;;;;;;;41.00;20.67;;;3.20;99.90;;;;;;5005898;28;20434;-77
2023/03/03 06:51:38;;;;;;;43.35;20.65;;;3.20;99.90;;;;;;5028675;28;20029;-77
2023/03/03 06:54:25;;;;;;;51.97;24.38;;;3.20;99.90;;;;;;5013109;28;20122;-78
2023/03/03 06:56:56;;;;;;;43.92;23.42;;;3.20;99.90;;;;;;5003655;28;20056;-76
2023/03/03 06:59:22;;;;;;;54.55;26.42;;;3.20;99.90;;;;;;4992244;28;20463;-76
2023/03/03 07:01:49;;;;;;;50.53;24.05;;;3.20;99.90;;;;;;4992382;28;20097;-76
2023/03/03 07:04:30;;;;;;;49.30;24.38;;;3.20;99.90;;;;;;4992594;28;20034;-76
2023/03/03 07:06:58;;;;;;;59.17;26.08;;;3.20;99.90;;;;;;4993137;28;20022;-78
2023/03/03 07:09:28;;;;;;;50.45;24.00;;;3.20;99.90;;;;;;4993487;28;20031;-76
2023/03/03 07:12:04;;;;;;;45.20;21.73;;;3.20;99.90;;;;;;4992926;28;20034;-75
2023/03/03 07:14:30;;;;;;;43.38;21.33;;;3.30;99.90;;;;;;4993389;28;20383;-77
2023/03/03 07:17:00;;;;;;;45.72;22.80;;;3.30;99.90;;;;;;4994610;28;20022;-76
2023/03/03 07:19:35;;;;;;;52.30;24.30;;;3.40;99.90;;;;;;4994747;28;20041;-77
2023/03/03 07:22:15;;;;;;;61.55;27.23;;;3.40;99.90;;;;;;5011557;28;20036;-76
2023/03/03 07:24:44;;;;;;;59.33;28.75;;;3.40;99.90;;;;;;5004816;28;20301;-76
2023/03/03 07:27:18;;;;;;;57.78;26.33;;;3.40;99.90;;;;;;4993927;28;20360;-76
2023/03/03 07:29:51;;;;;;;45.50;22.02;;;3.40;99.90;;;;;;5006350;28;20025;-76
2023/03/03 07:32:32;;;;;;;46.92;21.27;;;3.40;99.90;;;;;;5023036;28;20024;-76
2023/03/03 07:34:59;;;;;;;47.03;21.95;;;3.50;99.90;;;;;;4986421;28;20038;-76
2023/03/03 07:37:37;;;;;;;40.42;18.77;;;3.50;99.90;;;;;;4981338;28;20039;-76
2023/03/03 07:40:32;;;;;;;39.95;19.67;;;3.50;99.90;;;;;;4973477;28;20058;-77
2023/03/03 07:42:58;;;;;;;50.20;26.63;;;3.60;99.90;;;;;;4973978;28;20066;-75
2023/03/03 07:45:32;;;;;;;56.20;26.55;;;3.60;99.90;;;;;;4977630;28;20027;-77
2023/03/03 07:48:25;;;;;;;50.08;23.30;;;3.50;99.90;;;;;;5005215;28;20022;-76
2023/03/03 07:50:52;;;;;;;45.13;21.45;;;3.60;99.90;;;;;;5032908;28;20057;-76
2023/03/03 07:53:33;;;;;;;38.55;20.05;;;3.60;99.90;;;;;;5013334;28;20037;-76
2023/03/03 07:56:00;;;;;;;46.67;23.75;;;3.60;99.90;;;;;;5012901;28;20064;-76
2023/03/03 07:58:37;;;;;;;47.85;24.60;;;3.60;99.90;;;;;;5014749;28;20025;-77
2023/03/03 08:01:21;;;;;;;48.35;22.25;;;3.70;99.90;;;;;;5012661;28;20471;-76
2023/03/03 08:03:49;;;;;;;45.95;20.88;;;3.70;99.90;;;;;;5000100;28;20034;-76
2023/03/03 08:06:34;;;;;;;33.88;17.10;;;3.80;99.90;;;;;;4998546;28;20019;-77
2023/03/03 08:09:11;;;;;;;41.83;22.42;;;4.00;99.90;;;;;;5000678;28;20019;-77
2023/03/03 08:11:49;;;;;;;47.03;23.05;;;4.20;99.80;;;;;;4998908;28;20046;-79
2023/03/03 08:14:25;;;;;;;40.90;21.17;;;4.30;99.50;;;;;;5006060;28;20023;-78
2023/03/03 08:16:50;;;;;;;38.50;19.92;;;4.40;99.30;;;;;;5024026;28;20034;-78
2023/03/03 08:19:17;;;;;;;32.10;17.80;;;4.50;99.00;;;;;;5023126;28;20095;-79
2023/03/03 08:21:43;;;;;;;40.95;21.70;;;4.70;98.90;;;;;;5036076;28;20044;-77
2023/03/03 08:24:09;;;;;;;41.53;21.05;;;4.90;98.20;;;;;;5031659;28;20093;-78
2023/03/03 08:26:35;;;;;;;40.55;21.35;;;5.00;97.80;;;;;;5025878;28;20025;-76
2023/03/03 08:29:00;;;;;;;47.83;23.35;;;5.10;97.50;;;;;;5032990;28;20024;-75
2023/03/03 08:31:27;;;;;;;39.45;20.40;;;5.20;97.00;;;;;;5030574;28;20026;-76
2023/03/03 08:33:52;;;;;;;41.33;19.90;;;5.30;96.90;;;;;;5031106;28;20038;-75
2023/03/03 08:36:21;;;;;;;54.47;27.63;;;5.40;96.50;;;;;;5031235;28;20160;-76
2023/03/03 08:38:47;;;;;;;43.22;22.17;;;5.40;95.70;;;;;;5027144;28;20029;-77
2023/03/03 08:41:15;;;;;;;50.50;25.83;;;5.40;95.70;;;;;;5004215;28;20085;-79
2023/03/03 08:43:44;;;;;;;52.70;26.10;;;5.50;95.50;;;;;;4999322;28;20090;-77
2023/03/03 08:46:10;;;;;;;51.45;27.40;;;5.50;95.30;;;;;;5010502;28;20018;-76
2023/03/03 08:48:37;;;;;;;59.47;30.55;;;5.50;95.00;;;;;;5022708;28;20013;-77
2023/03/03 08:51:03;;;;;;;64.40;31.33;;;5.50;94.60;;;;;;5030839;28;20029;-80
2023/03/03 08:53:29;;;;;;;53.97;26.92;;;5.50;94.30;;;;;;5017333;28;20030;-79
2023/03/03 08:55:54;;;;;;;48.90;23.83;;;5.50;94.50;;;;;;5001733;28;20026;-79
2023/03/03 08:58:25;;;;;;;50.28;26.42;;;5.60;94.80;;;;;;5021418;28;20084;-77
2023/03/03 09:00:51;;;;;;;55.05;28.48;;;5.70;94.40;;;;;;5006559;28;20046;-77
2023/03/03 09:03:17;;;;;;;50.35;24.58;;;5.80;93.90;;;;;;5007168;28;20026;-78
2023/03/03 09:05:44;;;;;;;42.90;22.15;;;5.70;94.00;;;;;;5007575;28;20031;-75
2023/03/03 09:08:09;;;;;;;38.17;19.83;;;5.70;94.40;;;;;;5008353;28;20110;-78
2023/03/03 09:10:35;;;;;;;30.05;16.98;;;5.90;94.70;;;;;;5010269;28;20039;-79
2023/03/03 09:13:15;;;;;;;31.50;16.50;;;6.00;94.50;;;;;;5018198;28;20084;-76
2023/03/03 09:15:41;;;;;;;51.33;27.85;;;6.20;94.10;;;;;;5022416;28;20102;-77
2023/03/03 09:18:18;;;;;;;46.08;24.17;;;6.20;93.30;;;;;;5022613;28;20048;-78
2023/03/03 09:20:49;;;;;;;38.13;21.42;;;6.10;93.20;;;;;;5043779;28;20033;-78
2023/03/03 09:23:35;;;;;;;33.22;18.17;;;6.10;93.80;;;;;;5046718;28;20045;-77
2023/03/03 09:26:29;;;;;;;41.22;21.88;;;6.40;93.70;;;;;;5036383;28;20029;-77
2023/03/03 09:29:22;;;;;;;40.88;20.98;;;6.50;92.80;;;;;;5025478;28;20054;-78
2023/03/03 09:31:50;;;;;;;;;;;6.40;92.50;;;;;;4997400;28;20075;-77
2023/03/03 09:34:19;;;;;;;41.72;19.00;;;6.50;92.50;;;;;;4998122;28;19914;-78
2023/03/03 09:36:45;;;;;;;34.22;18.17;;;6.50;92.40;;;;;;5000301;28;20032;-77
2023/03/03 09:39:18;;;;;;;29.63;16.13;;;6.70;92.40;;;;;;4998901;28;20451;-79
2023/03/03 09:42:03;;;;;;;27.67;15.40;;;6.80;92.30;;;;;;4998363;28;20033;-78
2023/03/03 09:44:48;;;;;;;47.80;23.83;;;6.80;92.00;;;;;;4999823;28;20050;-79
2023/03/03 09:47:17;;;;;;;35.25;19.45;;;6.90;91.40;;;;;;5002355;28;20022;-78
2023/03/03 09:50:00;;;;;;;50.65;27.40;;;7.00;91.60;;;;;;5007247;28;20027;-77
2023/03/03 09:52:44;;;;;;;52.30;27.23;;;7.00;90.60;;;;;;4995435;28;20049;-77
2023/03/03 09:55:38;;;;;;;46.60;24.63;;;7.00;90.50;;;;;;4978941;28;20400;-78
2023/03/03 09:58:16;;;;;;;37.03;21.23;;;7.00;90.80;;;;;;4990310;28;20049;-77
2023/03/03 10:00:41;;;;;;;38.47;20.17;;;7.00;90.90;;;;;;4999768;28;20419;-78
2023/03/03 10:03:31;;;;;;;32.47;18.00;;;7.10;90.80;;;;;;5010929;28;20027;-77
2023/03/03 10:06:19;;;;;;;37.40;18.88;;;7.20;90.70;;;;;;5017848;28;20129;-75
2023/03/03 10:09:12;;;;;;;30.65;16.33;;;7.20;90.40;;;;;;5018148;28;20078;-78
2023/03/03 10:11:41;;;;;;;37.20;19.67;;;7.30;90.70;;;;;;5016981;28;20031;-77
2023/03/03 10:14:27;;;;;;;42.97;21.08;;;7.30;90.40;;;;;;5015687;28;20025;-77
2023/03/03 10:17:22;;;;;;;40.13;22.08;;;7.40;90.00;;;;;;5022616;28;20006;-77
2023/03/03 10:20:11;;;;;;;53.00;27.85;;;7.30;89.70;;;;;;5033487;28;20076;-76
2023/03/03 10:23:02;;;;;;;54.63;28.55;;;7.10;88.50;;;;;;5032928;28;20021;-77
2023/03/03 10:25:37;;;;;;;42.63;23.27;;;7.00;89.90;;;;;;5015712;28;20045;-77
2023/03/03 10:28:24;;;;;;;38.47;20.05;;;6.90;90.20;;;;;;5017030;28;20575;-77
2023/03/03 10:31:05;;;;;;;47.63;26.48;;;6.90;90.50;;;;;;5016121;28;20034;-77
2023/03/03 10:34:18;;;;;;;39.97;21.13;;;7.00;90.50;;;;;;5018341;28;20121;-78
2023/03/03 10:37:03;;;;;;;43.47;21.45;;;7.10;90.30;;;;;;4976692;28;20029;-78
2023/03/03 10:39:35;;;;;;;45.70;25.30;;;7.20;90.10;;;;;;5028133;28;20053;-76
2023/03/03 10:42:00;;;;;;;41.20;21.75;;;7.20;89.40;;;;;;5016159;28;20492;-77
2023/03/03 10:44:55;;;;;;;38.75;20.45;;;7.30;90.00;;;;;;5016542;28;20106;-76
2023/03/03 10:47:27;;;;;;;32.55;17.40;;;7.50;89.80;;;;;;4963280;28;20082;-77
2023/03/03 10:49:59;;;;;;;27.95;15.57;;;7.70;89.80;;;;;;5040533;28;20026;-78
2023/03/03 10:52:48;;;;;;;34.42;19.13;;;8.00;88.60;;;;;;5026061;28;20037;-76
2023/03/03 10:55:52;;;;;;;29.67;16.30;;;8.10;87.90;;;;;;5015002;28;20029;-77
2023/03/03 10:58:26;;;;;;;27.92;15.63;;;8.30;87.70;;;;;;5017302;28;20040;-78
2023/03/03 11:01:11;;;;;;;41.58;22.83;;;8.50;86.10;;;;;;5015727;28;20026;-77
2023/03/03 11:04:01;;;;;;;37.40;21.35;;;8.70;84.70;;;;;;5031953;28;20037;-78
2023/03/03 11:06:57;;;;;;;45.55;25.00;;;8.60;84.50;;;;;;5014847;28;20037;-78
2023/03/03 11:09:32;;;;;;;36.05;20.27;;;8.60;84.00;;;;;;5016458;28;20109;-78
2023/03/03 11:12:09;;;;;;;38.65;20.27;;;8.60;84.10;;;;;;5016158;28;20149;-78
2023/03/03 11:14:47;;;;;;;46.38;24.13;;;8.70;84.20;;;;;;5016529;28;20026;-77
2023/03/03 11:17:42;;;;;;;43.03;22.92;;;8.70;82.90;;;;;;5029373;28;20034;-77
2023/03/03 11:20:38;;;;;;;31.77;18.75;;;8.70;82.80;;;;;;4968281;28;20081;-78
2023/03/03 11:23:43;;;;;;;33.33;18.05;;;8.60;82.80;;;;;;4976951;28;20030;-77
2023/03/03 11:26:21;;;;;;;25.13;15.75;;;8.50;83.20;;;;;;4986397;28;20022;-78
2023/03/03 11:29:00;;;;;;;26.08;14.07;;;8.60;83.10;;;;;;5014373;28;20112;-77
2023/03/03 11:31:53;;;;;;;23.17;12.85;;;8.70;83.10;;;;;;5015850;28;20087;-79
2023/03/03 11:34:47;;;;;;;54.13;30.55;;;8.90;83.10;;;;;;5033383;28;20120;-78
2023/03/03 11:37:34;;;;;;;51.80;27.92;;;9.00;79.00;;;;;;5016705;28;20018;-78
2023/03/03 11:40:11;;;;;;;51.20;28.83;;;8.70;79.20;;;;;;5016737;28;20026;-80
2023/03/03 11:42:55;;;;;;;39.40;22.80;;;8.60;80.60;;;;;;5018185;28;20040;-78
2023/03/03 11:45:44;;;;;;;41.78;23.80;;;8.60;82.70;;;;;;5016691;28;20030;-78
2023/03/03 11:48:31;;;;;;;38.97;21.48;;;8.70;81.60;;;;;;5009028;28;20014;-78
2023/03/03 11:51:11;;;;;;;33.90;19.35;;;8.80;81.80;;;;;;5017260;28;20025;-78
2023/03/03 11:54:14;;;;;;;35.17;20.15;;;9.00;81.80;;;;;;5033393;28;20030;-78
2023/03/03 11:56:42;;;;;;;26.88;16.33;;;9.10;80.10;;;;;;5017101;28;20052;-78
2023/03/03 11:59:28;;;;;;;24.55;13.48;;;9.20;81.10;;;;;;4977647;28;20034;-80
2023/03/03 12:02:04;;;;;;;47.22;25.45;;;9.50;80.40;;;;;;4977214;28;20018;-77
2023/03/03 12:05:03;;;;;;;37.50;22.00;;;9.70;77.80;;;;;;4977192;28;20030;-78
2023/03/03 12:08:02;;;;;;;45.67;25.45;;;9.70;77.70;;;;;;4984204;28;20172;-77
2023/03/03 12:10:49;;;;;;;36.83;22.45;;;9.70;80.20;;;;;;5029557;28;20026;-77
2023/03/03 12:13:24;;;;;;;41.38;22.20;;;9.60;77.20;;;;;;5016090;28;20471;-77
2023/03/03 12:15:55;;;;;;;38.05;23.30;;;9.60;77.20;;;;;;5012957;28;20026;-77
2023/03/03 12:18:39;;;;;;;34.38;21.25;;;9.70;76.90;;;;;;5008693;28;20025;-78
2023/03/03 12:21:26;;;;;;;34.40;19.65;;;9.50;76.80;;;;;;5007825;28;20033;-76
2023/03/03 12:24:10;;;;;;;35.20;20.85;;;9.40;77.70;;;;;;4996544;28;20080;-78
2023/03/03 12:27:09;;;;;;;31.80;18.33;;;9.40;77.10;;;;;;4988989;28;20027;-77
2023/03/03 12:29:53;;;;;;;37.17;21.42;;;9.60;77.90;;;;;;5008932;28;20018;-75
2023/03/03 12:32:22;;;;;;;41.58;24.80;;;9.70;76.60;;;;;;5007302;28;20099;-75
2023/03/03 12:35:05;;;;;;;36.70;20.95;;;9.50;76.10;;;;;;4993646;28;20038;-76
2023/03/03 12:37:56;;;;;;;43.17;23.35;;;9.50;76.70;;;;;;4993412;28;20058;-77
2023/03/03 12:40:29;;;;;;;36.13;20.65;;;9.40;76.60;;;;;;5015087;28;20076;-79
2023/03/03 12:43:09;;;;;;;;;;;9.40;76.60;;;;;;5001139;28;20022;-81
2023/03/03 12:45:55;;;;;;;36.97;20.33;;;9.30;76.80;;;;;;4993288;28;20330;-77
2023/03/03 12:48:32;;;;;;;29.02;16.77;;;9.10;77.20;;;;;;5005970;28;20105;-77
2023/03/03 12:51:05;;;;;;;48.92;28.33;;;9.00;78.00;;;;;;5015497;28;20459;-77
2023/03/03 12:53:58;;;;;;;54.33;27.27;;;9.00;77.50;;;;;;5036109;28;20026;-77
2023/03/03 12:56:43;;;;;;;43.75;25.25;;;8.90;77.40;;;;;;5024676;28;20026;-76
2023/03/03 13:00:07;;;;;;;40.42;22.00;;;8.80;78.90;;;;;;5029055;28;20081;-75
2023/03/03 13:02:44;;;;;;;42.85;24.05;;;8.80;78.90;;;;;;4946663;29;20047;-75
2023/03/03 13:05:47;;;;;;;34.63;20.58;;;8.80;78.60;;;;;;4942663;29;20031;-77
2023/03/03 13:08:38;;;;;;;48.30;25.50;;;8.90;79.20;;;;;;5002745;28;20111;-76
2023/03/03 13:11:34;;;;;;;49.83;28.73;;;9.10;78.40;;;;;;4999887;28;20094;-76